sensor_id;sensor_type;location;lat;lon;timestamp;P1;durP1;ratioP1;P2;durP2;ratioP2
7501;SDS011;3792;47.740;7.606;2023-03-31T00:01:40;7.03;;;3.20;;
7501;SDS011;3792;47.740;7.606;2023-03-31T00:04:07;7.63;;;3.77;;
7501;SDS011;3792;47.740;7.606;2023-03-31T00:06:37;9.57;;;4.30;;
7501;SDS011;3792;47.740;7.606;2023-03-31T00:09:06;5.80;;;3.47;;
7501;SDS011;3792;47.740;7.606;2023-03-31T00:11:35;8.90;;;4.40;;
7501;SDS011;3792;47.740;7.606;2023-03-31T00:14:03;5.87;;;3.80;;
7501;SDS011;3792;47.740;7.606;2023-03-31T00:16:32;6.13;;;4.07;;
7501;SDS011;3792;47.740;7.606;2023-03-31T00:19:00;7.97;;;4.40;;
7501;SDS011;3792;47.740;7.606;2023-03-31T00:21:27;8.53;;;3.80;;
7501;SDS011;3792;47.740;7.606;2023-03-31T00:23:58;5.80;;;3.67;;
7501;SDS011;3792;47.740;7.606;2023-03-31T00:26:26;7.73;;;3.77;;
7501;SDS011;3792;47.740;7.606;2023-03-31T00:28:54;8.27;;;4.00;;
7501;SDS011;3792;47.740;7.606;2023-03-31T00:31:21;8.53;;;4.03;;
7501;SDS011;3792;47.740;7.606;2023-03-31T00:33:51;7.60;;;4.10;;
7501;SDS011;3792;47.740;7.606;2023-03-31T00:36:18;8.93;;;4.40;;
7501;SDS011;3792;47.740;7.606;2023-03-31T00:38:51;7.73;;;4.30;;
7501;SDS011;3792;47.740;7.606;2023-03-31T00:41:18;8.37;;;4.13;;
7501;SDS011;3792;47.740;7.606;2023-03-31T00:46:35;8.10;;;3.93;;
7501;SDS011;3792;47.740;7.606;2023-03-31T00:49:10;8.17;;;4.47;;
7501;SDS011;3792;47.740;7.606;2023-03-31T00:51:42;8.30;;;4.53;;
7501;SDS011;3792;47.740;7.606;2023-03-31T00:54:10;8.73;;;3.70;;
7501;SDS011;3792;47.740;7.606;2023-03-31T00:56:39;10.13;;;4.47;;
7501;SDS011;3792;47.740;7.606;2023-03-31T00:59:10;7.17;;;4.17;;
7501;SDS011;3792;47.740;7.606;2023-03-31T01:01:37;6.90;;;3.90;;
7501;SDS011;3792;47.740;7.606;2023-03-31T01:04:07;9.20;;;4.53;;
7501;SDS011;3792;47.740;7.606;2023-03-31T01:06:39;11.07;;;4.53;;
7501;SDS011;3792;47.740;7.606;2023-03-31T01:09:14;7.97;;;3.80;;
7501;SDS011;3792;47.740;7.606;2023-03-31T01:11:42;10.57;;;4.50;;
7501;SDS011;3792;47.740;7.606;2023-03-31T01:14:10;6.67;;;3.97;;
7501;SDS011;3792;47.740;7.606;2023-03-31T01:16:38;9.60;;;4.13;;
7501;SDS011;3792;47.740;7.606;2023-03-31T01:19:06;10.57;;;3.87;;
7501;SDS011;3792;47.740;7.606;2023-03-31T01:24:59;8.03;;;3.87;;
7501;SDS011;3792;47.740;7.606;2023-03-31T01:27:55;7.07;;;4.00;;
7501;SDS011;3792;47.740;7.606;2023-03-31T01:40:18;8.50;;;3.87;;
7501;SDS011;3792;47.740;7.606;2023-03-31T01:42:56;8.03;;;4.20;;
7501;SDS011;3792;47.740;7.606;2023-03-31T01:45:31;8.63;;;4.70;;
7501;SDS011;3792;47.740;7.606;2023-03-31T01:48:08;10.80;;;4.80;;
7501;SDS011;3792;47.740;7.606;2023-03-31T01:50:43;8.03;;;4.80;;
7501;SDS011;3792;47.740;7.606;2023-03-31T01:53:14;6.10;;;3.97;;
7501;SDS011;3792;47.740;7.606;2023-03-31T01:55:47;9.00;;;4.50;;
7501;SDS011;3792;47.740;7.606;2023-03-31T01:58:23;9.53;;;4.53;;
7501;SDS011;3792;47.740;7.606;2023-03-31T02:00:57;9.07;;;4.17;;
7501;SDS011;3792;47.740;7.606;2023-03-31T02:03:28;7.87;;;4.97;;
7501;SDS011;3792;47.740;7.606;2023-03-31T02:06:02;8.57;;;4.60;;
7501;SDS011;3792;47.740;7.606;2023-03-31T02:08:34;13.57;;;5.40;;
7501;SDS011;3792;47.740;7.606;2023-03-31T02:11:06;7.50;;;4.27;;
7501;SDS011;3792;47.740;7.606;2023-03-31T02:13:34;8.53;;;4.50;;
7501;SDS011;3792;47.740;7.606;2023-03-31T02:16:05;7.77;;;5.07;;
7501;SDS011;3792;47.740;7.606;2023-03-31T02:18:35;10.40;;;4.37;;
7501;SDS011;3792;47.740;7.606;2023-03-31T02:21:06;9.53;;;5.10;;
7501;SDS011;3792;47.740;7.606;2023-03-31T02:23:35;6.23;;;4.53;;
7501;SDS011;3792;47.740;7.606;2023-03-31T02:26:04;8.07;;;4.33;;
7501;SDS011;3792;47.740;7.606;2023-03-31T02:28:37;7.70;;;4.23;;
7501;SDS011;3792;47.740;7.606;2023-03-31T02:31:06;7.30;;;4.30;;
7501;SDS011;3792;47.740;7.606;2023-03-31T02:33:44;6.53;;;4.13;;
7501;SDS011;3792;47.740;7.606;2023-03-31T02:36:12;9.53;;;4.00;;
7501;SDS011;3792;47.740;7.606;2023-03-31T02:38:42;12.27;;;4.33;;
7501;SDS011;3792;47.740;7.606;2023-03-31T02:41:12;7.03;;;4.10;;
7501;SDS011;3792;47.740;7.606;2023-03-31T02:43:40;7.70;;;4.27;;
7501;SDS011;3792;47.740;7.606;2023-03-31T02:46:07;6.53;;;4.13;;
7501;SDS011;3792;47.740;7.606;2023-03-31T02:48:36;7.57;;;4.40;;
7501;SDS011;3792;47.740;7.606;2023-03-31T02:54:14;8.53;;;4.50;;
7501;SDS011;3792;47.740;7.606;2023-03-31T02:57:06;12.57;;;4.37;;
7501;SDS011;3792;47.740;7.606;2023-03-31T02:59:48;12.27;;;4.77;;
7501;SDS011;3792;47.740;7.606;2023-03-31T03:02:29;6.57;;;3.87;;
7501;SDS011;3792;47.740;7.606;2023-03-31T03:05:07;7.33;;;3.53;;
7501;SDS011;3792;47.740;7.606;2023-03-31T03:07:46;6.70;;;3.90;;
7501;SDS011;3792;47.740;7.606;2023-03-31T03:10:23;6.03;;;3.60;;
7501;SDS011;3792;47.740;7.606;2023-03-31T03:13:00;6.83;;;3.70;;
7501;SDS011;3792;47.740;7.606;2023-03-31T03:15:34;10.00;;;4.27;;
7501;SDS011;3792;47.740;7.606;2023-03-31T03:18:04;7.43;;;4.17;;
7501;SDS011;3792;47.740;7.606;2023-03-31T03:20:32;7.43;;;4.30;;
7501;SDS011;3792;47.740;7.606;2023-03-31T03:23:00;10.00;;;4.37;;
7501;SDS011;3792;47.740;7.606;2023-03-31T03:25:27;8.07;;;4.47;;
7501;SDS011;3792;47.740;7.606;2023-03-31T03:27:54;8.53;;;4.10;;
7501;SDS011;3792;47.740;7.606;2023-03-31T03:30:23;9.17;;;4.10;;
7501;SDS011;3792;47.740;7.606;2023-03-31T03:32:50;7.27;;;3.80;;
7501;SDS011;3792;47.740;7.606;2023-03-31T03:35:18;7.03;;;3.87;;
7501;SDS011;3792;47.740;7.606;2023-03-31T03:37:45;7.70;;;3.63;;
7501;SDS011;3792;47.740;7.606;2023-03-31T03:40:12;5.60;;;3.40;;
7501;SDS011;3792;47.740;7.606;2023-03-31T03:42:40;6.57;;;4.17;;
7501;SDS011;3792;47.740;7.606;2023-03-31T03:45:07;7.30;;;4.27;;
7501;SDS011;3792;47.740;7.606;2023-03-31T03:47:36;9.80;;;4.33;;
7501;SDS011;3792;47.740;7.606;2023-03-31T03:50:03;11.53;;;3.83;;
7501;SDS011;3792;47.740;7.606;2023-03-31T03:52:31;6.17;;;3.80;;
7501;SDS011;3792;47.740;7.606;2023-03-31T03:54:58;8.20;;;3.87;;
7501;SDS011;3792;47.740;7.606;2023-03-31T03:57:25;5.20;;;3.40;;
7501;SDS011;3792;47.740;7.606;2023-03-31T03:59:52;6.50;;;3.87;;
7501;SDS011;3792;47.740;7.606;2023-03-31T04:02:19;9.00;;;3.80;;
7501;SDS011;3792;47.740;7.606;2023-03-31T04:04:48;5.93;;;4.13;;
7501;SDS011;3792;47.740;7.606;2023-03-31T04:07:15;5.20;;;3.50;;
7501;SDS011;3792;47.740;7.606;2023-03-31T04:09:42;8.90;;;3.73;;
7501;SDS011;3792;47.740;7.606;2023-03-31T04:12:09;8.87;;;3.87;;
7501;SDS011;3792;47.740;7.606;2023-03-31T04:14:36;11.53;;;3.97;;
7501;SDS011;3792;47.740;7.606;2023-03-31T04:17:03;8.67;;;4.07;;
7501;SDS011;3792;47.740;7.606;2023-03-31T04:19:30;9.50;;;4.40;;
7501;SDS011;3792;47.740;7.606;2023-03-31T04:21:58;6.23;;;3.63;;
7501;SDS011;3792;47.740;7.606;2023-03-31T04:24:26;6.63;;;3.53;;
7501;SDS011;3792;47.740;7.606;2023-03-31T04:26:57;7.60;;;4.00;;
7501;SDS011;3792;47.740;7.606;2023-03-31T04:29:25;7.27;;;3.30;;
7501;SDS011;3792;47.740;7.606;2023-03-31T04:31:52;7.27;;;3.73;;
7501;SDS011;3792;47.740;7.606;2023-03-31T04:34:25;7.80;;;3.27;;
7501;SDS011;3792;47.740;7.606;2023-03-31T04:37:00;6.40;;;4.03;;
7501;SDS011;3792;47.740;7.606;2023-03-31T04:39:28;6.20;;;3.47;;
7501;SDS011;3792;47.740;7.606;2023-03-31T04:41:56;4.73;;;3.40;;
7501;SDS011;3792;47.740;7.606;2023-03-31T04:44:23;8.13;;;3.63;;
7501;SDS011;3792;47.740;7.606;2023-03-31T04:46:51;6.47;;;3.87;;
7501;SDS011;3792;47.740;7.606;2023-03-31T04:49:18;7.37;;;3.93;;
7501;SDS011;3792;47.740;7.606;2023-03-31T04:51:45;6.47;;;3.90;;
7501;SDS011;3792;47.740;7.606;2023-03-31T04:54:14;10.43;;;3.83;;
7501;SDS011;3792;47.740;7.606;2023-03-31T04:56:41;6.57;;;3.03;;
7501;SDS011;3792;47.740;7.606;2023-03-31T04:59:08;7.80;;;3.40;;
7501;SDS011;3792;47.740;7.606;2023-03-31T05:01:35;7.37;;;3.67;;
7501;SDS011;3792;47.740;7.606;2023-03-31T05:04:02;6.87;;;3.10;;
7501;SDS011;3792;47.740;7.606;2023-03-31T05:06:30;7.23;;;4.00;;
7501;SDS011;3792;47.740;7.606;2023-03-31T05:08:57;6.30;;;3.67;;
7501;SDS011;3792;47.740;7.606;2023-03-31T05:11:26;6.23;;;3.30;;
7501;SDS011;3792;47.740;7.606;2023-03-31T05:13:53;6.97;;;3.30;;
7501;SDS011;3792;47.740;7.606;2023-03-31T05:16:20;6.47;;;4.00;;
7501;SDS011;3792;47.740;7.606;2023-03-31T05:18:47;10.03;;;4.30;;
7501;SDS011;3792;47.740;7.606;2023-03-31T05:21:14;4.33;;;3.37;;
7501;SDS011;3792;47.740;7.606;2023-03-31T05:23:43;5.60;;;3.87;;
7501;SDS011;3792;47.740;7.606;2023-03-31T05:26:11;4.60;;;3.27;;
7501;SDS011;3792;47.740;7.606;2023-03-31T05:28:40;7.40;;;3.63;;
7501;SDS011;3792;47.740;7.606;2023-03-31T05:31:10;10.03;;;3.73;;
7501;SDS011;3792;47.740;7.606;2023-03-31T05:33:38;8.43;;;4.00;;
7501;SDS011;3792;47.740;7.606;2023-03-31T05:36:06;7.97;;;4.07;;
7501;SDS011;3792;47.740;7.606;2023-03-31T05:38:34;5.77;;;3.50;;
7501;SDS011;3792;47.740;7.606;2023-03-31T05:41:01;9.70;;;4.17;;
7501;SDS011;3792;47.740;7.606;2023-03-31T05:43:28;5.33;;;3.63;;
7501;SDS011;3792;47.740;7.606;2023-03-31T05:45:56;6.40;;;3.60;;
7501;SDS011;3792;47.740;7.606;2023-03-31T05:48:24;5.80;;;3.50;;
7501;SDS011;3792;47.740;7.606;2023-03-31T05:50:55;5.40;;;4.03;;
7501;SDS011;3792;47.740;7.606;2023-03-31T05:53:23;8.67;;;3.33;;
7501;SDS011;3792;47.740;7.606;2023-03-31T05:55:55;8.30;;;3.87;;
7501;SDS011;3792;47.740;7.606;2023-03-31T05:58:24;5.17;;;4.03;;
7501;SDS011;3792;47.740;7.606;2023-03-31T06:01:03;7.90;;;3.87;;
7501;SDS011;3792;47.740;7.606;2023-03-31T06:03:32;6.60;;;3.97;;
7501;SDS011;3792;47.740;7.606;2023-03-31T06:05:59;9.80;;;4.47;;
7501;SDS011;3792;47.740;7.606;2023-03-31T06:08:27;5.60;;;3.23;;
7501;SDS011;3792;47.740;7.606;2023-03-31T06:10:55;8.50;;;3.40;;
7501;SDS011;3792;47.740;7.606;2023-03-31T06:13:22;4.20;;;3.07;;
7501;SDS011;3792;47.740;7.606;2023-03-31T06:15:53;3.63;;;2.60;;
7501;SDS011;3792;47.740;7.606;2023-03-31T06:18:23;4.13;;;2.40;;
7501;SDS011;3792;47.740;7.606;2023-03-31T06:20:50;4.67;;;2.47;;
7501;SDS011;3792;47.740;7.606;2023-03-31T06:23:17;5.80;;;2.70;;
7501;SDS011;3792;47.740;7.606;2023-03-31T06:25:45;2.67;;;2.07;;
7501;SDS011;3792;47.740;7.606;2023-03-31T06:28:12;3.20;;;1.80;;
7501;SDS011;3792;47.740;7.606;2023-03-31T06:30:39;2.13;;;1.50;;
7501;SDS011;3792;47.740;7.606;2023-03-31T06:33:07;2.07;;;1.23;;
7501;SDS011;3792;47.740;7.606;2023-03-31T06:35:37;3.13;;;1.10;;
7501;SDS011;3792;47.740;7.606;2023-03-31T06:38:05;0.97;;;0.97;;
7501;SDS011;3792;47.740;7.606;2023-03-31T06:40:32;2.03;;;1.10;;
7501;SDS011;3792;47.740;7.606;2023-03-31T06:42:59;2.37;;;1.33;;
7501;SDS011;3792;47.740;7.606;2023-03-31T06:45:26;1.53;;;1.10;;
7501;SDS011;3792;47.740;7.606;2023-03-31T06:47:53;4.73;;;1.73;;
7501;SDS011;3792;47.740;7.606;2023-03-31T06:50:20;3.07;;;1.43;;
7501;SDS011;3792;47.740;7.606;2023-03-31T06:52:49;2.10;;;1.40;;
7501;SDS011;3792;47.740;7.606;2023-03-31T06:55:19;2.13;;;1.40;;
7501;SDS011;3792;47.740;7.606;2023-03-31T06:57:46;2.60;;;1.47;;
7501;SDS011;3792;47.740;7.606;2023-03-31T07:00:13;3.87;;;1.50;;
7501;SDS011;3792;47.740;7.606;2023-03-31T07:02:41;2.37;;;1.77;;
7501;SDS011;3792;47.740;7.606;2023-03-31T07:05:08;2.03;;;1.40;;
7501;SDS011;3792;47.740;7.606;2023-03-31T07:07:35;3.93;;;2.83;;
7501;SDS011;3792;47.740;7.606;2023-03-31T07:10:04;2.33;;;2.00;;
7501;SDS011;3792;47.740;7.606;2023-03-31T07:12:32;2.33;;;1.67;;
7501;SDS011;3792;47.740;7.606;2023-03-31T07:14:59;3.30;;;1.90;;
7501;SDS011;3792;47.740;7.606;2023-03-31T07:17:26;1.80;;;1.70;;
7501;SDS011;3792;47.740;7.606;2023-03-31T07:19:53;4.53;;;2.60;;
7501;SDS011;3792;47.740;7.606;2023-03-31T07:22:21;2.20;;;1.93;;
7501;SDS011;3792;47.740;7.606;2023-03-31T07:24:49;2.37;;;1.93;;
7501;SDS011;3792;47.740;7.606;2023-03-31T07:27:17;2.30;;;2.00;;
7501;SDS011;3792;47.740;7.606;2023-03-31T07:29:44;1.70;;;1.60;;
7501;SDS011;3792;47.740;7.606;2023-03-31T07:32:11;3.23;;;1.57;;
7501;SDS011;3792;47.740;7.606;2023-03-31T07:34:38;7.53;;;2.17;;
7501;SDS011;3792;47.740;7.606;2023-03-31T07:37:06;3.00;;;1.50;;
7501;SDS011;3792;47.740;7.606;2023-03-31T07:39:34;1.63;;;1.50;;
7501;SDS011;3792;47.740;7.606;2023-03-31T07:42:01;4.23;;;1.57;;
7501;SDS011;3792;47.740;7.606;2023-03-31T07:44:31;5.30;;;1.87;;
7501;SDS011;3792;47.740;7.606;2023-03-31T07:46:58;3.10;;;2.10;;
7501;SDS011;3792;47.740;7.606;2023-03-31T07:49:28;4.57;;;2.63;;
7501;SDS011;3792;47.740;7.606;2023-03-31T07:51:55;5.63;;;2.30;;
7501;SDS011;3792;47.740;7.606;2023-03-31T07:54:23;4.43;;;1.93;;
7501;SDS011;3792;47.740;7.606;2023-03-31T07:56:50;3.13;;;1.70;;
7501;SDS011;3792;47.740;7.606;2023-03-31T07:59:17;3.47;;;1.80;;
7501;SDS011;3792;47.740;7.606;2023-03-31T08:01:45;5.03;;;1.80;;
7501;SDS011;3792;47.740;7.606;2023-03-31T08:04:12;3.90;;;1.40;;
7501;SDS011;3792;47.740;7.606;2023-03-31T08:06:39;3.17;;;1.70;;
7501;SDS011;3792;47.740;7.606;2023-03-31T08:09:06;3.77;;;1.77;;
7501;SDS011;3792;47.740;7.606;2023-03-31T08:11:33;5.83;;;1.60;;
7501;SDS011;3792;47.740;7.606;2023-03-31T08:14:00;2.60;;;1.40;;
7501;SDS011;3792;47.740;7.606;2023-03-31T08:16:28;4.00;;;1.47;;
7501;SDS011;3792;47.740;7.606;2023-03-31T08:18:57;2.17;;;1.30;;
7501;SDS011;3792;47.740;7.606;2023-03-31T08:21:24;3.00;;;1.20;;
7501;SDS011;3792;47.740;7.606;2023-03-31T08:23:53;3.80;;;1.23;;
7501;SDS011;3792;47.740;7.606;2023-03-31T08:26:20;2.17;;;1.17;;
7501;SDS011;3792;47.740;7.606;2023-03-31T08:28:48;1.90;;;1.30;;
7501;SDS011;3792;47.740;7.606;2023-03-31T08:31:16;2.33;;;1.40;;
7501;SDS011;3792;47.740;7.606;2023-03-31T08:33:44;3.03;;;1.27;;
7501;SDS011;3792;47.740;7.606;2023-03-31T08:36:13;1.90;;;1.30;;
7501;SDS011;3792;47.740;7.606;2023-03-31T08:38:41;2.53;;;1.10;;
7501;SDS011;3792;47.740;7.606;2023-03-31T08:41:13;2.73;;;1.00;;
7501;SDS011;3792;47.740;7.606;2023-03-31T08:43:55;2.50;;;1.30;;
7501;SDS011;3792;47.740;7.606;2023-03-31T08:46:26;3.57;;;1.27;;
7501;SDS011;3792;47.740;7.606;2023-03-31T08:48:55;4.93;;;1.30;;
7501;SDS011;3792;47.740;7.606;2023-03-31T08:51:28;1.47;;;1.20;;
7501;SDS011;3792;47.740;7.606;2023-03-31T08:53:58;2.30;;;1.37;;
7501;SDS011;3792;47.740;7.606;2023-03-31T08:56:28;4.97;;;1.80;;
7501;SDS011;3792;47.740;7.606;2023-03-31T08:58:58;2.00;;;1.10;;
7501;SDS011;3792;47.740;7.606;2023-03-31T09:01:30;1.80;;;1.20;;
7501;SDS011;3792;47.740;7.606;2023-03-31T09:04:12;1.47;;;1.30;;
7501;SDS011;3792;47.740;7.606;2023-03-31T09:06:54;2.97;;;1.43;;
7501;SDS011;3792;47.740;7.606;2023-03-31T09:09:29;2.63;;;1.30;;
7501;SDS011;3792;47.740;7.606;2023-03-31T09:12:05;2.83;;;1.10;;
7501;SDS011;3792;47.740;7.606;2023-03-31T09:14:39;6.07;;;1.30;;
7501;SDS011;3792;47.740;7.606;2023-03-31T09:17:15;6.77;;;1.90;;
7501;SDS011;3792;47.740;7.606;2023-03-31T09:19:49;8.93;;;2.13;;
7501;SDS011;3792;47.740;7.606;2023-03-31T09:22:22;5.27;;;1.57;;
7501;SDS011;3792;47.740;7.606;2023-03-31T09:24:54;6.23;;;1.40;;
7501;SDS011;3792;47.740;7.606;2023-03-31T09:27:25;5.93;;;1.97;;
7501;SDS011;3792;47.740;7.606;2023-03-31T09:29:57;6.50;;;1.80;;
7501;SDS011;3792;47.740;7.606;2023-03-31T09:32:29;6.97;;;1.60;;
7501;SDS011;3792;47.740;7.606;2023-03-31T09:34:58;9.47;;;2.33;;
7501;SDS011;3792;47.740;7.606;2023-03-31T09:37:30;5.13;;;1.80;;
7501;SDS011;3792;47.740;7.606;2023-03-31T09:40:02;7.77;;;2.30;;
7501;SDS011;3792;47.740;7.606;2023-03-31T09:42:32;5.33;;;1.63;;
7501;SDS011;3792;47.740;7.606;2023-03-31T09:44:59;4.87;;;2.03;;
7501;SDS011;3792;47.740;7.606;2023-03-31T09:47:28;4.90;;;1.40;;
7501;SDS011;3792;47.740;7.606;2023-03-31T09:50:05;8.43;;;2.07;;
7501;SDS011;3792;47.740;7.606;2023-03-31T09:52:36;5.83;;;1.77;;
7501;SDS011;3792;47.740;7.606;2023-03-31T09:55:08;4.77;;;1.63;;
7501;SDS011;3792;47.740;7.606;2023-03-31T09:57:43;8.03;;;1.63;;
7501;SDS011;3792;47.740;7.606;2023-03-31T10:00:13;6.17;;;1.90;;
7501;SDS011;3792;47.740;7.606;2023-03-31T10:02:42;6.20;;;1.70;;
7501;SDS011;3792;47.740;7.606;2023-03-31T10:10:56;6.90;;;1.30;;
7501;SDS011;3792;47.740;7.606;2023-03-31T10:13:34;6.17;;;1.70;;
7501;SDS011;3792;47.740;7.606;2023-03-31T10:16:09;3.17;;;1.57;;
7501;SDS011;3792;47.740;7.606;2023-03-31T10:18:39;5.07;;;1.43;;
7501;SDS011;3792;47.740;7.606;2023-03-31T10:21:17;5.20;;;1.40;;
7501;SDS011;3792;47.740;7.606;2023-03-31T10:23:49;4.90;;;1.57;;
7501;SDS011;3792;47.740;7.606;2023-03-31T10:26:17;5.60;;;1.53;;
7501;SDS011;3792;47.740;7.606;2023-03-31T10:28:46;8.23;;;1.77;;
7501;SDS011;3792;47.740;7.606;2023-03-31T10:31:16;5.23;;;1.80;;
7501;SDS011;3792;47.740;7.606;2023-03-31T10:33:45;5.40;;;1.63;;
7501;SDS011;3792;47.740;7.606;2023-03-31T10:36:15;6.17;;;1.90;;
7501;SDS011;3792;47.740;7.606;2023-03-31T10:38:46;4.83;;;1.40;;
7501;SDS011;3792;47.740;7.606;2023-03-31T10:41:17;6.43;;;1.80;;
7501;SDS011;3792;47.740;7.606;2023-03-31T10:43:47;6.40;;;1.53;;
7501;SDS011;3792;47.740;7.606;2023-03-31T10:46:16;4.87;;;1.63;;
7501;SDS011;3792;47.740;7.606;2023-03-31T10:48:44;8.27;;;2.20;;
7501;SDS011;3792;47.740;7.606;2023-03-31T10:51:13;5.37;;;1.37;;
7501;SDS011;3792;47.740;7.606;2023-03-31T10:53:43;6.67;;;2.03;;
7501;SDS011;3792;47.740;7.606;2023-03-31T10:56:16;5.50;;;1.67;;
7501;SDS011;3792;47.740;7.606;2023-03-31T10:59:09;6.87;;;1.57;;
7501;SDS011;3792;47.740;7.606;2023-03-31T11:01:59;7.73;;;1.70;;
7501;SDS011;3792;47.740;7.606;2023-03-31T11:04:48;5.20;;;1.60;;
7501;SDS011;3792;47.740;7.606;2023-03-31T11:07:25;2.93;;;1.43;;
7501;SDS011;3792;47.740;7.606;2023-03-31T11:10:19;9.07;;;2.20;;
7501;SDS011;3792;47.740;7.606;2023-03-31T11:13:05;7.47;;;2.27;;
7501;SDS011;3792;47.740;7.606;2023-03-31T11:15:41;6.00;;;1.87;;
7501;SDS011;3792;47.740;7.606;2023-03-31T11:18:31;4.50;;;1.90;;
7501;SDS011;3792;47.740;7.606;2023-03-31T11:21:11;6.07;;;2.00;;
7501;SDS011;3792;47.740;7.606;2023-03-31T11:23:48;6.80;;;2.77;;
7501;SDS011;3792;47.740;7.606;2023-03-31T11:26:26;6.93;;;2.87;;
7501;SDS011;3792;47.740;7.606;2023-03-31T11:29:04;5.40;;;2.40;;
7501;SDS011;3792;47.740;7.606;2023-03-31T11:31:44;5.93;;;2.43;;
7501;SDS011;3792;47.740;7.606;2023-03-31T11:34:23;4.77;;;1.77;;
7501;SDS011;3792;47.740;7.606;2023-03-31T11:37:06;3.90;;;2.40;;
7501;SDS011;3792;47.740;7.606;2023-03-31T11:39:59;5.27;;;1.23;;
7501;SDS011;3792;47.740;7.606;2023-03-31T11:42:35;4.13;;;1.50;;
7501;SDS011;3792;47.740;7.606;2023-03-31T11:45:15;0.90;;;0.60;;
7501;SDS011;3792;47.740;7.606;2023-03-31T11:47:47;2.53;;;1.00;;
7501;SDS011;3792;47.740;7.606;2023-03-31T11:50:18;2.77;;;0.97;;
7501;SDS011;3792;47.740;7.606;2023-03-31T11:52:49;1.50;;;1.00;;
7501;SDS011;3792;47.740;7.606;2023-03-31T11:55:22;2.93;;;0.70;;
7501;SDS011;3792;47.740;7.606;2023-03-31T11:57:55;3.10;;;0.70;;
7501;SDS011;3792;47.740;7.606;2023-03-31T12:00:28;1.10;;;0.60;;
7501;SDS011;3792;47.740;7.606;2023-03-31T12:02:58;2.10;;;0.80;;
7501;SDS011;3792;47.740;7.606;2023-03-31T12:05:32;1.33;;;0.63;;
7501;SDS011;3792;47.740;7.606;2023-03-31T12:08:02;3.37;;;0.90;;
7501;SDS011;3792;47.740;7.606;2023-03-31T12:10:34;1.73;;;0.93;;
7501;SDS011;3792;47.740;7.606;2023-03-31T12:13:04;4.40;;;0.70;;
7501;SDS011;3792;47.740;7.606;2023-03-31T12:15:43;2.40;;;0.70;;
7501;SDS011;3792;47.740;7.606;2023-03-31T12:18:17;4.30;;;1.00;;
7501;SDS011;3792;47.740;7.606;2023-03-31T12:20:49;2.07;;;0.80;;
7501;SDS011;3792;47.740;7.606;2023-03-31T12:23:19;2.03;;;1.00;;
7501;SDS011;3792;47.740;7.606;2023-03-31T12:25:50;1.93;;;0.80;;
7501;SDS011;3792;47.740;7.606;2023-03-31T12:28:20;3.63;;;1.23;;
7501;SDS011;3792;47.740;7.606;2023-03-31T12:30:50;3.23;;;1.20;;
7501;SDS011;3792;47.740;7.606;2023-03-31T12:33:18;1.87;;;0.97;;
7501;SDS011;3792;47.740;7.606;2023-03-31T12:35:52;2.53;;;1.47;;
7501;SDS011;3792;47.740;7.606;2023-03-31T12:38:32;1.80;;;0.90;;
7501;SDS011;3792;47.740;7.606;2023-03-31T12:41:09;2.93;;;1.20;;
7501;SDS011;3792;47.740;7.606;2023-03-31T12:43:49;5.17;;;1.13;;
7501;SDS011;3792;47.740;7.606;2023-03-31T12:46:38;2.33;;;1.00;;
7501;SDS011;3792;47.740;7.606;2023-03-31T12:49:27;3.90;;;1.20;;
7501;SDS011;3792;47.740;7.606;2023-03-31T12:52:07;3.83;;;1.50;;
7501;SDS011;3792;47.740;7.606;2023-03-31T12:54:48;5.20;;;1.70;;
7501;SDS011;3792;47.740;7.606;2023-03-31T12:57:35;1.87;;;1.10;;
7501;SDS011;3792;47.740;7.606;2023-03-31T13:00:17;3.90;;;1.47;;
7501;SDS011;3792;47.740;7.606;2023-03-31T13:02:50;4.77;;;1.60;;
7501;SDS011;3792;47.740;7.606;2023-03-31T13:05:58;3.70;;;1.47;;
7501;SDS011;3792;47.740;7.606;2023-03-31T13:11:35;4.47;;;1.60;;
7501;SDS011;3792;47.740;7.606;2023-03-31T13:14:04;5.27;;;1.70;;
7501;SDS011;3792;47.740;7.606;2023-03-31T13:16:37;5.87;;;1.57;;
7501;SDS011;3792;47.740;7.606;2023-03-31T13:19:06;5.67;;;1.63;;
7501;SDS011;3792;47.740;7.606;2023-03-31T13:21:50;4.57;;;1.50;;
7501;SDS011;3792;47.740;7.606;2023-03-31T13:24:20;4.90;;;1.80;;
7501;SDS011;3792;47.740;7.606;2023-03-31T13:26:48;2.60;;;1.00;;
7501;SDS011;3792;47.740;7.606;2023-03-31T13:29:21;2.17;;;1.10;;
7501;SDS011;3792;47.740;7.606;2023-03-31T13:34:48;3.57;;;1.20;;
7501;SDS011;3792;47.740;7.606;2023-03-31T13:40:24;3.43;;;1.07;;
7501;SDS011;3792;47.740;7.606;2023-03-31T13:46:24;3.60;;;1.13;;
7501;SDS011;3792;47.740;7.606;2023-03-31T13:49:23;1.83;;;1.03;;
7501;SDS011;3792;47.740;7.606;2023-03-31T13:52:10;2.20;;;1.00;;
7501;SDS011;3792;47.740;7.606;2023-03-31T14:00:50;3.17;;;1.80;;
7501;SDS011;3792;47.740;7.606;2023-03-31T14:03:34;3.57;;;1.30;;
7501;SDS011;3792;47.740;7.606;2023-03-31T14:06:17;3.90;;;0.90;;
7501;SDS011;3792;47.740;7.606;2023-03-31T14:08:51;3.60;;;1.10;;
7501;SDS011;3792;47.740;7.606;2023-03-31T14:11:22;2.53;;;0.90;;
7501;SDS011;3792;47.740;7.606;2023-03-31T14:13:57;6.10;;;1.00;;
7501;SDS011;3792;47.740;7.606;2023-03-31T14:16:25;2.67;;;0.80;;
7501;SDS011;3792;47.740;7.606;2023-03-31T14:18:56;4.33;;;1.00;;
7501;SDS011;3792;47.740;7.606;2023-03-31T14:21:33;4.70;;;1.00;;
7501;SDS011;3792;47.740;7.606;2023-03-31T14:24:09;4.23;;;1.27;;
7501;SDS011;3792;47.740;7.606;2023-03-31T14:26:48;2.50;;;0.93;;
7501;SDS011;3792;47.740;7.606;2023-03-31T14:29:23;4.00;;;1.10;;
7501;SDS011;3792;47.740;7.606;2023-03-31T14:31:58;4.13;;;1.37;;
7501;SDS011;3792;47.740;7.606;2023-03-31T14:34:40;5.93;;;1.20;;
7501;SDS011;3792;47.740;7.606;2023-03-31T14:37:16;9.63;;;3.23;;
7501;SDS011;3792;47.740;7.606;2023-03-31T14:39:47;2.63;;;1.13;;
7501;SDS011;3792;47.740;7.606;2023-03-31T14:42:17;4.13;;;1.60;;
7501;SDS011;3792;47.740;7.606;2023-03-31T14:44:46;1.80;;;1.47;;
7501;SDS011;3792;47.740;7.606;2023-03-31T14:47:15;2.80;;;0.77;;
7501;SDS011;3792;47.740;7.606;2023-03-31T14:49:46;3.03;;;1.10;;
7501;SDS011;3792;47.740;7.606;2023-03-31T14:52:27;1.33;;;0.87;;
7501;SDS011;3792;47.740;7.606;2023-03-31T14:54:57;2.77;;;0.90;;
7501;SDS011;3792;47.740;7.606;2023-03-31T14:57:27;5.10;;;1.27;;
7501;SDS011;3792;47.740;7.606;2023-03-31T14:59:58;0.87;;;0.83;;
7501;SDS011;3792;47.740;7.606;2023-03-31T15:02:34;2.50;;;1.00;;
7501;SDS011;3792;47.740;7.606;2023-03-31T15:05:02;1.90;;;1.10;;
7501;SDS011;3792;47.740;7.606;2023-03-31T15:07:34;3.30;;;0.90;;
7501;SDS011;3792;47.740;7.606;2023-03-31T15:10:03;4.30;;;1.30;;
7501;SDS011;3792;47.740;7.606;2023-03-31T15:12:38;1.30;;;0.80;;
7501;SDS011;3792;47.740;7.606;2023-03-31T15:15:09;4.17;;;1.10;;
7501;SDS011;3792;47.740;7.606;2023-03-31T15:17:40;4.23;;;1.17;;
7501;SDS011;3792;47.740;7.606;2023-03-31T15:20:28;5.17;;;1.50;;
7501;SDS011;3792;47.740;7.606;2023-03-31T15:22:58;2.03;;;1.20;;
7501;SDS011;3792;47.740;7.606;2023-03-31T15:25:28;1.13;;;0.90;;
7501;SDS011;3792;47.740;7.606;2023-03-31T15:28:00;2.30;;;0.93;;
7501;SDS011;3792;47.740;7.606;2023-03-31T15:30:31;2.50;;;0.80;;
7501;SDS011;3792;47.740;7.606;2023-03-31T15:32:59;1.50;;;0.80;;
7501;SDS011;3792;47.740;7.606;2023-03-31T15:35:28;2.63;;;0.97;;
7501;SDS011;3792;47.740;7.606;2023-03-31T15:37:57;2.47;;;1.10;;
7501;SDS011;3792;47.740;7.606;2023-03-31T15:40:28;1.80;;;1.10;;
7501;SDS011;3792;47.740;7.606;2023-03-31T15:42:58;3.47;;;1.20;;
7501;SDS011;3792;47.740;7.606;2023-03-31T15:45:35;2.77;;;1.13;;
7501;SDS011;3792;47.740;7.606;2023-03-31T15:48:13;1.93;;;1.00;;
7501;SDS011;3792;47.740;7.606;2023-03-31T15:50:47;1.33;;;0.80;;
7501;SDS011;3792;47.740;7.606;2023-03-31T15:53:24;5.23;;;1.50;;
7501;SDS011;3792;47.740;7.606;2023-03-31T15:55:55;2.53;;;1.13;;
7501;SDS011;3792;47.740;7.606;2023-03-31T15:58:45;2.97;;;1.13;;
7501;SDS011;3792;47.740;7.606;2023-03-31T16:01:18;4.20;;;1.93;;
7501;SDS011;3792;47.740;7.606;2023-03-31T16:03:45;6.73;;;1.60;;
7501;SDS011;3792;47.740;7.606;2023-03-31T16:06:18;3.80;;;1.10;;
7501;SDS011;3792;47.740;7.606;2023-03-31T16:08:50;8.87;;;2.00;;
7501;SDS011;3792;47.740;7.606;2023-03-31T16:11:24;2.60;;;1.37;;
7501;SDS011;3792;47.740;7.606;2023-03-31T16:13:59;3.70;;;1.83;;
7501;SDS011;3792;47.740;7.606;2023-03-31T16:16:33;4.40;;;1.37;;
7501;SDS011;3792;47.740;7.606;2023-03-31T16:19:01;2.80;;;1.33;;
7501;SDS011;3792;47.740;7.606;2023-03-31T16:21:33;2.50;;;1.20;;
7501;SDS011;3792;47.740;7.606;2023-03-31T16:24:04;8.10;;;1.53;;
7501;SDS011;3792;47.740;7.606;2023-03-31T16:26:33;3.67;;;1.40;;